sensor_id;sensor_type;location;lat;lon;timestamp;P1;durP1;ratioP1;P2;durP2;ratioP2
81351;SDS011;70809;52.184;13.422;2024-03-02T00:00:15;78.78;;;35.97;;
81351;SDS011;70809;52.184;13.422;2024-03-02T00:01:17;80.60;;;37.40;;
81351;SDS011;70809;52.184;13.422;2024-03-02T00:02:19;74.97;;;34.88;;
81351;SDS011;70809;52.184;13.422;2024-03-02T00:03:21;70.35;;;33.63;;
81351;SDS011;70809;52.184;13.422;2024-03-02T00:04:22;73.10;;;36.13;;
81351;SDS011;70809;52.184;13.422;2024-03-02T00:05:24;69.82;;;34.92;;
81351;SDS011;70809;52.184;13.422;2024-03-02T00:06:27;58.40;;;30.70;;
81351;SDS011;70809;52.184;13.422;2024-03-02T00:07:29;60.22;;;30.95;;
81351;SDS011;70809;52.184;13.422;2024-03-02T00:08:30;70.03;;;33.72;;
81351;SDS011;70809;52.184;13.422;2024-03-02T00:09:35;80.75;;;36.35;;
81351;SDS011;70809;52.184;13.422;2024-03-02T00:10:37;78.72;;;35.05;;
81351;SDS011;70809;52.184;13.422;2024-03-02T00:11:40;71.97;;;36.13;;
81351;SDS011;70809;52.184;13.422;2024-03-02T00:12:41;71.85;;;33.35;;
81351;SDS011;70809;52.184;13.422;2024-03-02T00:13:43;79.55;;;37.55;;
81351;SDS011;70809;52.184;13.422;2024-03-02T00:14:46;70.63;;;36.75;;
81351;SDS011;70809;52.184;13.422;2024-03-02T00:15:48;79.07;;;42.03;;
81351;SDS011;70809;52.184;13.422;2024-03-02T00:16:54;79.70;;;38.33;;
81351;SDS011;70809;52.184;13.422;2024-03-02T00:17:56;97.68;;;43.40;;
81351;SDS011;70809;52.184;13.422;2024-03-02T00:19:01;63.72;;;33.58;;
81351;SDS011;70809;52.184;13.422;2024-03-02T00:20:03;72.50;;;36.95;;
81351;SDS011;70809;52.184;13.422;2024-03-02T00:21:08;78.60;;;39.10;;
81351;SDS011;70809;52.184;13.422;2024-03-02T00:22:11;75.70;;;37.83;;
81351;SDS011;70809;52.184;13.422;2024-03-02T00:23:14;78.85;;;38.45;;
81351;SDS011;70809;52.184;13.422;2024-03-02T00:24:18;73.82;;;39.47;;
81351;SDS011;70809;52.184;13.422;2024-03-02T00:25:22;74.97;;;37.20;;
81351;SDS011;70809;52.184;13.422;2024-03-02T00:26:23;70.55;;;36.40;;
81351;SDS011;70809;52.184;13.422;2024-03-02T00:27:25;79.32;;;39.60;;
81351;SDS011;70809;52.184;13.422;2024-03-02T00:28:27;86.63;;;39.75;;
81351;SDS011;70809;52.184;13.422;2024-03-02T00:29:31;70.95;;;35.47;;
81351;SDS011;70809;52.184;13.422;2024-03-02T00:30:40;74.30;;;32.78;;
81351;SDS011;70809;52.184;13.422;2024-03-02T00:31:53;66.93;;;33.50;;
81351;SDS011;70809;52.184;13.422;2024-03-02T00:32:55;60.33;;;32.97;;
81351;SDS011;70809;52.184;13.422;2024-03-02T00:33:57;77.47;;;36.63;;
81351;SDS011;70809;52.184;13.422;2024-03-02T00:35:04;75.97;;;36.28;;
81351;SDS011;70809;52.184;13.422;2024-03-02T00:36:06;72.88;;;35.78;;
81351;SDS011;70809;52.184;13.422;2024-03-02T00:37:09;79.68;;;36.97;;
81351;SDS011;70809;52.184;13.422;2024-03-02T00:38:13;67.82;;;35.10;;
81351;SDS011;70809;52.184;13.422;2024-03-02T00:39:15;80.93;;;37.92;;
81351;SDS011;70809;52.184;13.422;2024-03-02T00:40:17;72.97;;;37.03;;
81351;SDS011;70809;52.184;13.422;2024-03-02T00:41:21;80.82;;;37.13;;
81351;SDS011;70809;52.184;13.422;2024-03-02T00:42:24;84.63;;;39.40;;
81351;SDS011;70809;52.184;13.422;2024-03-02T00:45:50;76.07;;;34.70;;
81351;SDS011;70809;52.184;13.422;2024-03-02T00:46:52;83.22;;;36.55;;
81351;SDS011;70809;52.184;13.422;2024-03-02T00:47:54;73.63;;;34.83;;
81351;SDS011;70809;52.184;13.422;2024-03-02T00:48:57;73.22;;;34.25;;
81351;SDS011;70809;52.184;13.422;2024-03-02T00:50:00;84.20;;;37.15;;
81351;SDS011;70809;52.184;13.422;2024-03-02T00:51:04;72.32;;;34.70;;
81351;SDS011;70809;52.184;13.422;2024-03-02T00:52:06;77.18;;;36.08;;
81351;SDS011;70809;52.184;13.422;2024-03-02T00:53:09;78.60;;;36.90;;
81351;SDS011;70809;52.184;13.422;2024-03-02T00:56:16;83.43;;;34.15;;
81351;SDS011;70809;52.184;13.422;2024-03-02T00:57:18;65.28;;;31.40;;
81351;SDS011;70809;52.184;13.422;2024-03-02T00:58:20;80.32;;;37.10;;
81351;SDS011;70809;52.184;13.422;2024-03-02T00:59:22;82.45;;;36.08;;
81351;SDS011;70809;52.184;13.422;2024-03-02T01:00:23;96.35;;;39.50;;
81351;SDS011;70809;52.184;13.422;2024-03-02T01:01:25;62.83;;;32.53;;
81351;SDS011;70809;52.184;13.422;2024-03-02T01:02:28;71.88;;;33.22;;
81351;SDS011;70809;52.184;13.422;2024-03-02T01:03:29;72.80;;;33.42;;
81351;SDS011;70809;52.184;13.422;2024-03-02T01:04:32;78.38;;;34.63;;
81351;SDS011;70809;52.184;13.422;2024-03-02T01:05:34;90.15;;;39.47;;
81351;SDS011;70809;52.184;13.422;2024-03-02T01:06:35;96.93;;;37.28;;
81351;SDS011;70809;52.184;13.422;2024-03-02T01:07:37;76.28;;;33.95;;
81351;SDS011;70809;52.184;13.422;2024-03-02T01:08:39;83.93;;;36.33;;
81351;SDS011;70809;52.184;13.422;2024-03-02T01:09:42;79.97;;;36.75;;
81351;SDS011;70809;52.184;13.422;2024-03-02T01:10:44;100.43;;;38.28;;
81351;SDS011;70809;52.184;13.422;2024-03-02T01:11:45;85.00;;;35.92;;
81351;SDS011;70809;52.184;13.422;2024-03-02T01:12:47;76.13;;;35.72;;
81351;SDS011;70809;52.184;13.422;2024-03-02T01:13:48;79.43;;;36.60;;
81351;SDS011;70809;52.184;13.422;2024-03-02T01:14:50;98.13;;;39.30;;
81351;SDS011;70809;52.184;13.422;2024-03-02T01:15:52;69.25;;;31.77;;
81351;SDS011;70809;52.184;13.422;2024-03-02T01:16:53;76.30;;;35.17;;
81351;SDS011;70809;52.184;13.422;2024-03-02T01:17:55;73.93;;;33.72;;
81351;SDS011;70809;52.184;13.422;2024-03-02T01:18:57;85.88;;;38.38;;
81351;SDS011;70809;52.184;13.422;2024-03-02T01:19:59;91.30;;;36.47;;
81351;SDS011;70809;52.184;13.422;2024-03-02T01:21:00;77.38;;;35.30;;
81351;SDS011;70809;52.184;13.422;2024-03-02T01:22:02;91.85;;;37.95;;
81351;SDS011;70809;52.184;13.422;2024-03-02T01:23:04;61.00;;;31.92;;
81351;SDS011;70809;52.184;13.422;2024-03-02T01:24:05;74.97;;;35.05;;
81351;SDS011;70809;52.184;13.422;2024-03-02T01:25:09;74.75;;;36.40;;
81351;SDS011;70809;52.184;13.422;2024-03-02T01:27:12;68.57;;;30.70;;
81351;SDS011;70809;52.184;13.422;2024-03-02T01:28:14;79.95;;;34.55;;
81351;SDS011;70809;52.184;13.422;2024-03-02T01:29:16;79.18;;;35.50;;
81351;SDS011;70809;52.184;13.422;2024-03-02T01:30:17;85.15;;;36.63;;
81351;SDS011;70809;52.184;13.422;2024-03-02T01:31:19;84.32;;;36.55;;
81351;SDS011;70809;52.184;13.422;2024-03-02T01:32:20;77.93;;;37.38;;
81351;SDS011;70809;52.184;13.422;2024-03-02T01:33:22;91.65;;;38.90;;
81351;SDS011;70809;52.184;13.422;2024-03-02T01:34:24;77.38;;;34.42;;
81351;SDS011;70809;52.184;13.422;2024-03-02T01:35:25;84.93;;;37.08;;
81351;SDS011;70809;52.184;13.422;2024-03-02T01:36:27;82.88;;;36.20;;
81351;SDS011;70809;52.184;13.422;2024-03-02T01:37:29;83.35;;;36.45;;
81351;SDS011;70809;52.184;13.422;2024-03-02T01:38:30;76.90;;;35.85;;
81351;SDS011;70809;52.184;13.422;2024-03-02T01:39:32;78.55;;;33.53;;
81351;SDS011;70809;52.184;13.422;2024-03-02T01:40:35;80.03;;;36.35;;
81351;SDS011;70809;52.184;13.422;2024-03-02T01:41:37;84.38;;;36.38;;
81351;SDS011;70809;52.184;13.422;2024-03-02T01:42:39;82.13;;;35.88;;
81351;SDS011;70809;52.184;13.422;2024-03-02T01:43:41;84.93;;;36.25;;
81351;SDS011;70809;52.184;13.422;2024-03-02T01:44:42;97.03;;;37.03;;
81351;SDS011;70809;52.184;13.422;2024-03-02T01:45:44;89.93;;;35.75;;
81351;SDS011;70809;52.184;13.422;2024-03-02T01:46:46;90.50;;;36.92;;
81351;SDS011;70809;52.184;13.422;2024-03-02T01:47:47;81.38;;;35.15;;
81351;SDS011;70809;52.184;13.422;2024-03-02T01:48:49;78.75;;;36.22;;
81351;SDS011;70809;52.184;13.422;2024-03-02T01:49:51;88.70;;;36.65;;
81351;SDS011;70809;52.184;13.422;2024-03-02T01:50:53;80.50;;;34.03;;
81351;SDS011;70809;52.184;13.422;2024-03-02T01:51:54;74.47;;;34.53;;
81351;SDS011;70809;52.184;13.422;2024-03-02T01:52:56;73.20;;;32.42;;
81351;SDS011;70809;52.184;13.422;2024-03-02T01:53:58;71.68;;;35.70;;
81351;SDS011;70809;52.184;13.422;2024-03-02T01:55:00;72.53;;;35.33;;
81351;SDS011;70809;52.184;13.422;2024-03-02T01:56:03;74.05;;;33.33;;
81351;SDS011;70809;52.184;13.422;2024-03-02T01:57:05;74.40;;;35.42;;
81351;SDS011;70809;52.184;13.422;2024-03-02T01:58:07;79.93;;;35.13;;
81351;SDS011;70809;52.184;13.422;2024-03-02T01:59:08;73.60;;;35.33;;
81351;SDS011;70809;52.184;13.422;2024-03-02T02:00:11;76.40;;;34.90;;
81351;SDS011;70809;52.184;13.422;2024-03-02T02:01:13;77.72;;;35.03;;
81351;SDS011;70809;52.184;13.422;2024-03-02T02:02:15;77.63;;;35.50;;
81351;SDS011;70809;52.184;13.422;2024-03-02T02:03:16;78.93;;;37.08;;
81351;SDS011;70809;52.184;13.422;2024-03-02T02:04:18;75.60;;;34.88;;
81351;SDS011;70809;52.184;13.422;2024-03-02T02:05:23;84.78;;;37.72;;
81351;SDS011;70809;52.184;13.422;2024-03-02T02:06:24;77.57;;;34.83;;
81351;SDS011;70809;52.184;13.422;2024-03-02T02:07:26;85.47;;;38.38;;
81351;SDS011;70809;52.184;13.422;2024-03-02T02:08:27;88.63;;;35.30;;
81351;SDS011;70809;52.184;13.422;2024-03-02T02:09:29;82.65;;;35.45;;
81351;SDS011;70809;52.184;13.422;2024-03-02T02:10:31;96.38;;;37.40;;
81351;SDS011;70809;52.184;13.422;2024-03-02T02:11:34;99.85;;;37.92;;
81351;SDS011;70809;52.184;13.422;2024-03-02T02:12:35;96.60;;;37.38;;
81351;SDS011;70809;52.184;13.422;2024-03-02T02:13:38;97.15;;;37.53;;
81351;SDS011;70809;52.184;13.422;2024-03-02T02:14:39;101.43;;;38.33;;
81351;SDS011;70809;52.184;13.422;2024-03-02T02:15:48;81.32;;;36.20;;
81351;SDS011;70809;52.184;13.422;2024-03-02T02:16:50;79.30;;;32.65;;
81351;SDS011;70809;52.184;13.422;2024-03-02T02:17:51;86.13;;;34.95;;
81351;SDS011;70809;52.184;13.422;2024-03-02T02:18:53;88.93;;;34.78;;
81351;SDS011;70809;52.184;13.422;2024-03-02T02:19:55;68.50;;;29.88;;
81351;SDS011;70809;52.184;13.422;2024-03-02T02:20:57;65.43;;;29.50;;
81351;SDS011;70809;52.184;13.422;2024-03-02T02:21:59;56.83;;;28.67;;
81351;SDS011;70809;52.184;13.422;2024-03-02T02:23:02;75.15;;;31.63;;
81351;SDS011;70809;52.184;13.422;2024-03-02T02:24:04;73.18;;;30.80;;
81351;SDS011;70809;52.184;13.422;2024-03-02T02:25:06;67.57;;;30.85;;
81351;SDS011;70809;52.184;13.422;2024-03-02T02:26:08;67.93;;;29.80;;
81351;SDS011;70809;52.184;13.422;2024-03-02T02:27:09;93.82;;;34.65;;
81351;SDS011;70809;52.184;13.422;2024-03-02T02:28:11;94.68;;;34.22;;
81351;SDS011;70809;52.184;13.422;2024-03-02T02:29:13;73.80;;;31.63;;
81351;SDS011;70809;52.184;13.422;2024-03-02T02:30:18;65.53;;;30.65;;
81351;SDS011;70809;52.184;13.422;2024-03-02T02:31:20;67.13;;;29.70;;
81351;SDS011;70809;52.184;13.422;2024-03-02T02:32:22;66.22;;;31.88;;
81351;SDS011;70809;52.184;13.422;2024-03-02T02:33:23;61.65;;;29.95;;
81351;SDS011;70809;52.184;13.422;2024-03-02T02:34:25;64.38;;;29.10;;
81351;SDS011;70809;52.184;13.422;2024-03-02T02:35:27;69.07;;;31.05;;
81351;SDS011;70809;52.184;13.422;2024-03-02T02:36:28;64.22;;;29.13;;
81351;SDS011;70809;52.184;13.422;2024-03-02T02:37:31;72.30;;;31.98;;
81351;SDS011;70809;52.184;13.422;2024-03-02T02:38:33;73.50;;;30.75;;
81351;SDS011;70809;52.184;13.422;2024-03-02T02:39:38;67.28;;;29.55;;
81351;SDS011;70809;52.184;13.422;2024-03-02T02:40:40;69.20;;;30.80;;
81351;SDS011;70809;52.184;13.422;2024-03-02T02:41:42;73.45;;;32.58;;
81351;SDS011;70809;52.184;13.422;2024-03-02T02:42:43;73.80;;;32.10;;
81351;SDS011;70809;52.184;13.422;2024-03-02T02:43:45;74.75;;;30.90;;
81351;SDS011;70809;52.184;13.422;2024-03-02T02:44:47;74.45;;;32.58;;
81351;SDS011;70809;52.184;13.422;2024-03-02T02:45:48;66.05;;;29.60;;
81351;SDS011;70809;52.184;13.422;2024-03-02T02:46:50;62.75;;;29.90;;
81351;SDS011;70809;52.184;13.422;2024-03-02T02:47:57;69.38;;;28.15;;
81351;SDS011;70809;52.184;13.422;2024-03-02T02:48:59;63.90;;;28.42;;
81351;SDS011;70809;52.184;13.422;2024-03-02T02:50:01;72.82;;;31.80;;
81351;SDS011;70809;52.184;13.422;2024-03-02T02:51:03;59.67;;;29.30;;
81351;SDS011;70809;52.184;13.422;2024-03-02T02:52:05;61.25;;;28.73;;
81351;SDS011;70809;52.184;13.422;2024-03-02T02:53:08;62.63;;;29.75;;
81351;SDS011;70809;52.184;13.422;2024-03-02T02:54:09;73.38;;;30.65;;
81351;SDS011;70809;52.184;13.422;2024-03-02T02:55:11;74.82;;;31.40;;
81351;SDS011;70809;52.184;13.422;2024-03-02T02:56:14;86.20;;;32.90;;
81351;SDS011;70809;52.184;13.422;2024-03-02T02:57:15;76.65;;;32.45;;
81351;SDS011;70809;52.184;13.422;2024-03-02T02:58:17;78.35;;;32.65;;
81351;SDS011;70809;52.184;13.422;2024-03-02T02:59:18;66.15;;;30.83;;
81351;SDS011;70809;52.184;13.422;2024-03-02T03:00:20;76.68;;;32.00;;
81351;SDS011;70809;52.184;13.422;2024-03-02T03:01:21;71.93;;;30.77;;
81351;SDS011;70809;52.184;13.422;2024-03-02T03:02:23;64.63;;;30.88;;
81351;SDS011;70809;52.184;13.422;2024-03-02T03:03:25;92.45;;;36.92;;
81351;SDS011;70809;52.184;13.422;2024-03-02T03:04:27;78.55;;;31.63;;
81351;SDS011;70809;52.184;13.422;2024-03-02T03:05:28;65.78;;;29.80;;
81351;SDS011;70809;52.184;13.422;2024-03-02T03:06:30;70.10;;;32.10;;
81351;SDS011;70809;52.184;13.422;2024-03-02T03:07:32;74.03;;;32.38;;
81351;SDS011;70809;52.184;13.422;2024-03-02T03:08:37;68.85;;;31.27;;
81351;SDS011;70809;52.184;13.422;2024-03-02T03:09:39;71.47;;;32.20;;
81351;SDS011;70809;52.184;13.422;2024-03-02T03:10:41;63.28;;;28.85;;
81351;SDS011;70809;52.184;13.422;2024-03-02T03:11:42;80.30;;;34.33;;
81351;SDS011;70809;52.184;13.422;2024-03-02T03:12:44;76.85;;;34.72;;
81351;SDS011;70809;52.184;13.422;2024-03-02T03:13:46;68.70;;;31.83;;
81351;SDS011;70809;52.184;13.422;2024-03-02T03:14:47;79.22;;;33.28;;
81351;SDS011;70809;52.184;13.422;2024-03-02T03:15:49;70.30;;;31.67;;
81351;SDS011;70809;52.184;13.422;2024-03-02T03:16:51;77.75;;;32.92;;
81351;SDS011;70809;52.184;13.422;2024-03-02T03:17:52;88.68;;;35.33;;
81351;SDS011;70809;52.184;13.422;2024-03-02T03:18:54;73.90;;;32.70;;
81351;SDS011;70809;52.184;13.422;2024-03-02T03:19:55;68.05;;;31.40;;
81351;SDS011;70809;52.184;13.422;2024-03-02T03:20:57;71.40;;;32.55;;
81351;SDS011;70809;52.184;13.422;2024-03-02T03:21:58;73.03;;;31.80;;
81351;SDS011;70809;52.184;13.422;2024-03-02T03:23:00;73.10;;;31.65;;
81351;SDS011;70809;52.184;13.422;2024-03-02T03:24:04;78.93;;;34.22;;
81351;SDS011;70809;52.184;13.422;2024-03-02T03:25:06;67.75;;;31.77;;
81351;SDS011;70809;52.184;13.422;2024-03-02T03:26:08;75.55;;;33.33;;
81351;SDS011;70809;52.184;13.422;2024-03-02T03:27:10;80.80;;;34.60;;
81351;SDS011;70809;52.184;13.422;2024-03-02T03:28:12;92.10;;;35.72;;
81351;SDS011;70809;52.184;13.422;2024-03-02T03:29:13;89.55;;;37.90;;
81351;SDS011;70809;52.184;13.422;2024-03-02T03:30:15;95.25;;;37.40;;
81351;SDS011;70809;52.184;13.422;2024-03-02T03:31:19;92.78;;;38.33;;
81351;SDS011;70809;52.184;13.422;2024-03-02T03:32:21;87.47;;;35.17;;
81351;SDS011;70809;52.184;13.422;2024-03-02T03:33:23;79.82;;;33.20;;
81351;SDS011;70809;52.184;13.422;2024-03-02T03:34:24;73.72;;;32.47;;
81351;SDS011;70809;52.184;13.422;2024-03-02T03:35:26;73.72;;;33.88;;
81351;SDS011;70809;52.184;13.422;2024-03-02T03:36:28;64.43;;;30.27;;
81351;SDS011;70809;52.184;13.422;2024-03-02T03:37:29;70.82;;;33.63;;
81351;SDS011;70809;52.184;13.422;2024-03-02T03:38:31;63.75;;;30.05;;
81351;SDS011;70809;52.184;13.422;2024-03-02T03:39:35;74.78;;;33.67;;
81351;SDS011;70809;52.184;13.422;2024-03-02T03:40:36;64.35;;;29.95;;
81351;SDS011;70809;52.184;13.422;2024-03-02T03:41:38;75.40;;;32.38;;
81351;SDS011;70809;52.184;13.422;2024-03-02T03:42:41;67.68;;;31.85;;
81351;SDS011;70809;52.184;13.422;2024-03-02T03:43:43;85.72;;;35.13;;
81351;SDS011;70809;52.184;13.422;2024-03-02T03:44:44;62.55;;;30.50;;
81351;SDS011;70809;52.184;13.422;2024-03-02T03:45:46;65.75;;;31.75;;
81351;SDS011;70809;52.184;13.422;2024-03-02T03:46:47;57.22;;;28.70;;
81351;SDS011;70809;52.184;13.422;2024-03-02T03:47:49;80.53;;;33.78;;
81351;SDS011;70809;52.184;13.422;2024-03-02T03:48:51;95.93;;;37.67;;
81351;SDS011;70809;52.184;13.422;2024-03-02T03:49:53;75.03;;;34.13;;
81351;SDS011;70809;52.184;13.422;2024-03-02T03:50:54;66.97;;;30.70;;
81351;SDS011;70809;52.184;13.422;2024-03-02T03:51:56;65.30;;;31.88;;
81351;SDS011;70809;52.184;13.422;2024-03-02T03:52:57;55.70;;;27.33;;
81351;SDS011;70809;52.184;13.422;2024-03-02T03:53:59;66.22;;;29.33;;
81351;SDS011;70809;52.184;13.422;2024-03-02T03:55:02;61.42;;;30.38;;
81351;SDS011;70809;52.184;13.422;2024-03-02T03:56:04;65.20;;;32.78;;
81351;SDS011;70809;52.184;13.422;2024-03-02T03:57:06;62.10;;;29.98;;
81351;SDS011;70809;52.184;13.422;2024-03-02T03:58:08;63.33;;;30.67;;
81351;SDS011;70809;52.184;13.422;2024-03-02T03:59:09;66.68;;;32.92;;
81351;SDS011;70809;52.184;13.422;2024-03-02T04:00:11;62.50;;;30.52;;
81351;SDS011;70809;52.184;13.422;2024-03-02T04:01:14;78.43;;;34.63;;
81351;SDS011;70809;52.184;13.422;2024-03-02T04:02:15;70.32;;;34.25;;
81351;SDS011;70809;52.184;13.422;2024-03-02T04:03:17;83.53;;;35.55;;
81351;SDS011;70809;52.184;13.422;2024-03-02T04:04:19;77.25;;;34.05;;
81351;SDS011;70809;52.184;13.422;2024-03-02T04:05:20;69.47;;;34.60;;
81351;SDS011;70809;52.184;13.422;2024-03-02T04:06:22;77.88;;;32.92;;
81351;SDS011;70809;52.184;13.422;2024-03-02T04:07:24;87.82;;;36.90;;
81351;SDS011;70809;52.184;13.422;2024-03-02T04:08:25;78.63;;;35.25;;
81351;SDS011;70809;52.184;13.422;2024-03-02T04:09:27;65.55;;;33.28;;
81351;SDS011;70809;52.184;13.422;2024-03-02T04:10:30;82.45;;;36.85;;
81351;SDS011;70809;52.184;13.422;2024-03-02T04:11:31;69.22;;;34.22;;
81351;SDS011;70809;52.184;13.422;2024-03-02T04:12:33;73.28;;;35.03;;
81351;SDS011;70809;52.184;13.422;2024-03-02T04:13:34;75.90;;;35.17;;
81351;SDS011;70809;52.184;13.422;2024-03-02T04:14:36;90.07;;;36.78;;
81351;SDS011;70809;52.184;13.422;2024-03-02T04:15:37;93.30;;;37.67;;
81351;SDS011;70809;52.184;13.422;2024-03-02T04:16:39;80.40;;;36.35;;
81351;SDS011;70809;52.184;13.422;2024-03-02T04:17:41;80.22;;;36.25;;
81351;SDS011;70809;52.184;13.422;2024-03-02T04:18:43;72.05;;;35.10;;
81351;SDS011;70809;52.184;13.422;2024-03-02T04:19:44;75.40;;;35.38;;
81351;SDS011;70809;52.184;13.422;2024-03-02T04:20:46;73.15;;;34.58;;
81351;SDS011;70809;52.184;13.422;2024-03-02T04:21:50;68.90;;;32.33;;
81351;SDS011;70809;52.184;13.422;2024-03-02T04:22:51;76.70;;;34.40;;
81351;SDS011;70809;52.184;13.422;2024-03-02T04:23:53;87.18;;;37.50;;
81351;SDS011;70809;52.184;13.422;2024-03-02T04:24:54;105.18;;;40.35;;
81351;SDS011;70809;52.184;13.422;2024-03-02T04:25:58;84.50;;;36.83;;
81351;SDS011;70809;52.184;13.422;2024-03-02T04:26:59;80.13;;;37.38;;
81351;SDS011;70809;52.184;13.422;2024-03-02T04:28:01;92.15;;;37.60;;
81351;SDS011;70809;52.184;13.422;2024-03-02T04:29:02;78.93;;;35.35;;
81351;SDS011;70809;52.184;13.422;2024-03-02T04:30:05;77.03;;;36.75;;
81351;SDS011;70809;52.184;13.422;2024-03-02T04:31:07;81.15;;;35.47;;
81351;SDS011;70809;52.184;13.422;2024-03-02T04:32:09;74.80;;;34.03;;
81351;SDS011;70809;52.184;13.422;2024-03-02T04:33:10;88.07;;;36.63;;
81351;SDS011;70809;52.184;13.422;2024-03-02T04:34:12;91.70;;;38.50;;
81351;SDS011;70809;52.184;13.422;2024-03-02T04:35:14;88.60;;;36.75;;
81351;SDS011;70809;52.184;13.422;2024-03-02T04:36:16;99.85;;;39.13;;
81351;SDS011;70809;52.184;13.422;2024-03-02T04:37:17;106.18;;;40.53;;
81351;SDS011;70809;52.184;13.422;2024-03-02T04:38:19;104.22;;;39.60;;
81351;SDS011;70809;52.184;13.422;2024-03-02T04:39:20;95.90;;;38.05;;
81351;SDS011;70809;52.184;13.422;2024-03-02T04:40:22;83.53;;;37.58;;
81351;SDS011;70809;52.184;13.422;2024-03-02T04:41:25;109.25;;;39.97;;
81351;SDS011;70809;52.184;13.422;2024-03-02T04:42:27;87.10;;;36.05;;
81351;SDS011;70809;52.184;13.422;2024-03-02T04:43:28;78.93;;;37.15;;
81351;SDS011;70809;52.184;13.422;2024-03-02T04:44:30;101.75;;;39.50;;
81351;SDS011;70809;52.184;13.422;2024-03-02T04:45:31;89.40;;;36.95;;
81351;SDS011;70809;52.184;13.422;2024-03-02T04:46:33;90.43;;;36.55;;
81351;SDS011;70809;52.184;13.422;2024-03-02T04:47:34;83.82;;;35.60;;
81351;SDS011;70809;52.184;13.422;2024-03-02T04:48:36;87.95;;;36.20;;
81351;SDS011;70809;52.184;13.422;2024-03-02T04:49:38;99.65;;;37.70;;
81351;SDS011;70809;52.184;13.422;2024-03-02T04:50:39;94.07;;;39.22;;
81351;SDS011;70809;52.184;13.422;2024-03-02T04:51:41;85.63;;;36.88;;
81351;SDS011;70809;52.184;13.422;2024-03-02T04:52:43;71.30;;;35.67;;
81351;SDS011;70809;52.184;13.422;2024-03-02T04:53:44;60.17;;;29.65;;
81351;SDS011;70809;52.184;13.422;2024-03-02T04:54:46;59.08;;;31.15;;
81351;SDS011;70809;52.184;13.422;2024-03-02T04:55:48;64.82;;;29.85;;
81351;SDS011;70809;52.184;13.422;2024-03-02T04:56:51;59.88;;;29.67;;
81351;SDS011;70809;52.184;13.422;2024-03-02T04:57:52;57.28;;;32.15;;
81351;SDS011;70809;52.184;13.422;2024-03-02T04:58:54;58.67;;;29.90;;
81351;SDS011;70809;52.184;13.422;2024-03-02T04:59:56;81.45;;;33.95;;
81351;SDS011;70809;52.184;13.422;2024-03-02T05:00:57;72.82;;;33.60;;
81351;SDS011;70809;52.184;13.422;2024-03-02T05:01:59;88.60;;;36.10;;
81351;SDS011;70809;52.184;13.422;2024-03-02T05:03:01;79.28;;;36.15;;
81351;SDS011;70809;52.184;13.422;2024-03-02T05:04:03;95.43;;;39.00;;
81351;SDS011;70809;52.184;13.422;2024-03-02T05:05:04;122.07;;;41.92;;
81351;SDS011;70809;52.184;13.422;2024-03-02T05:06:06;120.88;;;42.53;;
81351;SDS011;70809;52.184;13.422;2024-03-02T05:07:08;78.30;;;35.65;;
81351;SDS011;70809;52.184;13.422;2024-03-02T05:08:09;81.38;;;37.95;;
81351;SDS011;70809;52.184;13.422;2024-03-02T05:09:11;113.95;;;40.53;;
81351;SDS011;70809;52.184;13.422;2024-03-02T05:10:13;75.85;;;36.90;;
81351;SDS011;70809;52.184;13.422;2024-03-02T05:11:14;99.47;;;39.83;;
81351;SDS011;70809;52.184;13.422;2024-03-02T05:12:17;95.65;;;41.40;;
81351;SDS011;70809;52.184;13.422;2024-03-02T05:13:19;100.00;;;41.25;;
81351;SDS011;70809;52.184;13.422;2024-03-02T05:14:20;86.68;;;38.08;;
81351;SDS011;70809;52.184;13.422;2024-03-02T05:15:22;100.28;;;41.03;;
81351;SDS011;70809;52.184;13.422;2024-03-02T05:16:24;92.30;;;39.95;;
81351;SDS011;70809;52.184;13.422;2024-03-02T05:17:25;89.95;;;40.22;;
81351;SDS011;70809;52.184;13.422;2024-03-02T05:18:27;101.43;;;39.53;;
81351;SDS011;70809;52.184;13.422;2024-03-02T05:19:28;105.07;;;40.60;;
81351;SDS011;70809;52.184;13.422;2024-03-02T05:20:30;89.40;;;39.22;;
81351;SDS011;70809;52.184;13.422;2024-03-02T05:21:32;85.05;;;37.15;;
81351;SDS011;70809;52.184;13.422;2024-03-02T05:22:34;85.47;;;37.28;;
81351;SDS011;70809;52.184;13.422;2024-03-02T05:23:35;87.40;;;35.33;;
81351;SDS011;70809;52.184;13.422;2024-03-02T05:24:37;76.15;;;33.65;;
81351;SDS011;70809;52.184;13.422;2024-03-02T05:25:38;74.55;;;34.67;;
81351;SDS011;70809;52.184;13.422;2024-03-02T05:26:40;118.45;;;39.38;;
81351;SDS011;70809;52.184;13.422;2024-03-02T05:27:43;87.93;;;37.92;;
81351;SDS011;70809;52.184;13.422;2024-03-02T05:28:45;95.30;;;39.05;;
81351;SDS011;70809;52.184;13.422;2024-03-02T05:29:46;107.50;;;41.60;;
81351;SDS011;70809;52.184;13.422;2024-03-02T05:30:48;117.47;;;42.35;;
81351;SDS011;70809;52.184;13.422;2024-03-02T05:31:50;93.78;;;40.30;;
81351;SDS011;70809;52.184;13.422;2024-03-02T05:32:51;100.68;;;41.85;;
81351;SDS011;70809;52.184;13.422;2024-03-02T05:33:53;80.80;;;37.53;;
81351;SDS011;70809;52.184;13.422;2024-03-02T05:34:58;94.28;;;39.53;;
81351;SDS011;70809;52.184;13.422;2024-03-02T05:36:00;169.82;;;47.65;;
81351;SDS011;70809;52.184;13.422;2024-03-02T05:37:01;79.53;;;36.63;;
81351;SDS011;70809;52.184;13.422;2024-03-02T05:38:03;134.68;;;44.00;;
81351;SDS011;70809;52.184;13.422;2024-03-02T05:39:05;91.25;;;39.35;;
81351;SDS011;70809;52.184;13.422;2024-03-02T05:40:07;88.32;;;37.47;;
81351;SDS011;70809;52.184;13.422;2024-03-02T05:41:09;78.05;;;35.20;;
81351;SDS011;70809;52.184;13.422;2024-03-02T05:42:11;80.75;;;36.85;;
81351;SDS011;70809;52.184;13.422;2024-03-02T05:43:14;115.68;;;44.03;;
81351;SDS011;70809;52.184;13.422;2024-03-02T05:44:15;72.97;;;36.05;;
81351;SDS011;70809;52.184;13.422;2024-03-02T05:45:17;66.88;;;32.72;;
81351;SDS011;70809;52.184;13.422;2024-03-02T05:46:19;73.13;;;35.17;;
81351;SDS011;70809;52.184;13.422;2024-03-02T05:47:20;81.35;;;37.72;;
81351;SDS011;70809;52.184;13.422;2024-03-02T05:48:22;85.65;;;38.10;;
81351;SDS011;70809;52.184;13.422;2024-03-02T05:49:24;90.45;;;38.63;;
81351;SDS011;70809;52.184;13.422;2024-03-02T05:50:25;99.78;;;40.95;;
81351;SDS011;70809;52.184;13.422;2024-03-02T05:51:27;76.55;;;36.45;;
81351;SDS011;70809;52.184;13.422;2024-03-02T05:52:28;101.47;;;40.22;;
81351;SDS011;70809;52.184;13.422;2024-03-02T05:53:31;79.75;;;35.03;;
81351;SDS011;70809;52.184;13.422;2024-03-02T05:54:33;86.45;;;38.28;;
81351;SDS011;70809;52.184;13.422;2024-03-02T05:55:35;89.38;;;38.00;;
81351;SDS011;70809;52.184;13.422;2024-03-02T05:56:36;79.57;;;36.80;;
81351;SDS011;70809;52.184;13.422;2024-03-02T05:57:38;76.55;;;36.15;;
81351;SDS011;70809;52.184;13.422;2024-03-02T05:58:41;81.80;;;36.83;;
81351;SDS011;70809;52.184;13.422;2024-03-02T05:59:43;95.22;;;37.38;;
81351;SDS011;70809;52.184;13.422;2024-03-02T06:00:45;92.03;;;39.28;;
81351;SDS011;70809;52.184;13.422;2024-03-02T06:01:46;70.72;;;34.38;;
81351;SDS011;70809;52.184;13.422;2024-03-02T06:02:48;64.03;;;31.55;;